createdAt,value
2023-04-18T00:00:40.213Z,99042.56
2023-04-18T00:05:44.020Z,99057.50
2023-04-18T00:10:46.664Z,99053.91
2023-04-18T00:15:48.515Z,99047.06
2023-04-18T00:20:50.503Z,99059.25
2023-04-18T00:25:52.294Z,99050.75
2023-04-18T00:30:54.051Z,99040.84
2023-04-18T00:35:55.758Z,99041.44
2023-04-18T00:40:57.721Z,99042.91
2023-04-18T00:46:01.631Z,99050.16
2023-04-18T00:51:03.877Z,99048.31
2023-04-18T00:56:06.929Z,99043.94
2023-04-18T01:01:09.555Z,99049.22
2023-04-18T01:06:11.907Z,99043.72
2023-04-18T01:11:13.681Z,99044.84
2023-04-18T01:16:15.782Z,99048.25
2023-04-18T01:21:18.312Z,99054.56
2023-04-18T01:26:20.510Z,99049.06
2023-04-18T01:31:22.343Z,99052.94
2023-04-18T01:36:24.156Z,99053.22
2023-04-18T01:41:25.919Z,99055.19
2023-04-18T01:46:28.868Z,99051.91
2023-04-18T01:51:31.424Z,99038.13
2023-04-18T01:56:33.235Z,99044.78
2023-04-18T02:01:36.532Z,99041.16
2023-04-18T02:06:38.272Z,99045.38
2023-04-18T02:11:40.315Z,99039.84
2023-04-18T02:16:42.110Z,99049.53
2023-04-18T02:21:45.041Z,99056.72
2023-04-18T02:26:46.947Z,99061.72
2023-04-18T02:31:48.891Z,99056.00
2023-04-18T02:36:50.706Z,99058.56
2023-04-18T02:41:52.421Z,99063.00
2023-04-18T02:46:54.148Z,99065.88
2023-04-18T02:51:58.055Z,99061.78
2023-04-18T02:56:59.843Z,99065.69
2023-04-18T03:02:21.893Z,99068.63
2023-04-18T03:07:29.055Z,99059.84
2023-04-18T03:12:31.079Z,99054.66
2023-04-18T03:17:33.231Z,99061.28
2023-04-18T03:22:35.293Z,99064.34
2023-04-18T03:27:37.354Z,99065.47
2023-04-18T03:32:39.477Z,99068.53
2023-04-18T03:37:41.341Z,99078.13
2023-04-18T03:42:44.650Z,99068.22
2023-04-18T03:47:46.713Z,99060.44
2023-04-18T03:52:49.089Z,99067.91
2023-04-18T03:57:52.605Z,99061.06
2023-04-18T04:03:01.890Z,99073.53
2023-04-18T04:08:03.961Z,99074.06
2023-04-18T04:13:05.749Z,99068.22
2023-04-18T04:18:10.622Z,99071.81
2023-04-18T04:23:16.421Z,99072.63
2023-04-18T04:28:23.952Z,99069.03
2023-04-18T04:33:34.545Z,99080.91
2023-04-18T04:38:40.716Z,99086.63
2023-04-18T04:43:43.654Z,99094.28
2023-04-18T04:48:53.178Z,99097.56
2023-04-18T04:53:55.018Z,99101.47
2023-04-18T04:58:57.712Z,99103.69
2023-04-18T05:04:06.352Z,99103.38
2023-04-18T05:09:08.365Z,99104.50
2023-04-18T05:14:10.258Z,99111.16
2023-04-18T05:19:12.046Z,99118.31
2023-04-18T05:24:14.237Z,99124.06
2023-04-18T05:29:16.281Z,99120.66
2023-04-18T05:34:18.064Z,99115.72
2023-04-18T05:39:19.764Z,99117.91
2023-04-18T05:44:21.792Z,99110.47
2023-04-18T05:49:23.791Z,99127.88
2023-04-18T05:54:25.759Z,99124.81
2023-04-18T05:59:27.436Z,99121.50
2023-04-18T06:04:29.469Z,99121.78
2023-04-18T06:09:31.403Z,99125.47
2023-04-18T06:14:33.165Z,99126.81
2023-04-18T06:19:34.883Z,99137.84
2023-04-18T06:24:37.440Z,99143.59
2023-04-18T06:29:39.301Z,99141.38
2023-04-18T06:34:41.087Z,99142.19
2023-04-18T06:39:43.195Z,99145.81
2023-04-18T06:44:44.967Z,99147.44
2023-04-18T06:49:46.864Z,99151.34
2023-04-18T06:54:48.680Z,99157.09
2023-04-18T06:59:50.510Z,99151.28
2023-04-18T07:04:52.227Z,99153.13
2023-04-18T07:09:54.057Z,99147.28
2023-04-18T07:14:55.773Z,99157.66
2023-04-18T07:19:58.720Z,99159.09
2023-04-18T07:25:00.455Z,99162.78
2023-04-18T07:30:03.358Z,99157.13
2023-04-18T07:35:05.490Z,99160.72
2023-04-18T07:40:08.461Z,99170.63
2023-04-18T07:45:10.595Z,99168.69
2023-04-18T07:50:12.404Z,99176.06
2023-04-18T07:55:15.025Z,99186.81
2023-04-18T08:00:20.056Z,99187.50
2023-04-18T08:05:21.876Z,99180.56
2023-04-18T08:10:23.991Z,99192.59
2023-04-18T08:15:27.578Z,99182.38
2023-04-18T08:20:29.400Z,99185.91
2023-04-18T08:25:31.770Z,99200.94
2023-04-18T08:30:33.682Z,99189.97
2023-04-18T08:35:35.808Z,99199.66
2023-04-18T08:40:39.133Z,99198.50
2023-04-18T08:45:41.928Z,99212.09
2023-04-18T08:50:44.950Z,99215.69
2023-04-18T08:55:50.690Z,99210.94
2023-04-18T09:00:53.761Z,99207.97
2023-04-18T09:06:20.281Z,99214.72
2023-04-18T09:11:29.009Z,99227.47
2023-04-18T09:16:45.243Z,99220.31
2023-04-18T09:21:56.920Z,99234.84
2023-04-18T09:26:59.990Z,99234.19
2023-04-18T09:32:02.100Z,99230.94
2023-04-18T09:37:09.299Z,99230.88
2023-04-18T09:42:11.423Z,99234.59
2023-04-18T09:47:13.219Z,99235.06
2023-04-18T09:52:16.048Z,99230.28
2023-04-18T09:57:18.605Z,99223.63
2023-04-18T10:02:22.809Z,99228.22
2023-04-18T10:07:26.266Z,99228.88
2023-04-18T10:12:28.145Z,99231.81
2023-04-18T10:17:36.760Z,99233.63
2023-04-18T10:22:38.623Z,99223.69
2023-04-18T10:27:56.523Z,99230.38
2023-04-18T10:32:58.370Z,99235.28
2023-04-18T10:38:02.830Z,99228.06
2023-04-18T10:43:06.592Z,99230.72
2023-04-18T10:48:39.344Z,99220.75
2023-04-18T10:53:48.496Z,99225.44
2023-04-18T10:58:52.303Z,99224.03
2023-04-18T11:03:58.103Z,99229.53
2023-04-18T11:09:14.021Z,99215.16
2023-04-18T11:14:16.145Z,99222.66
2023-04-18T11:19:20.433Z,99224.31
2023-04-18T11:24:24.073Z,99213.06
2023-04-18T11:29:26.100Z,99216.81
2023-04-18T11:34:31.590Z,99221.03
2023-04-18T11:39:42.560Z,99234.06
2023-04-18T11:44:49.226Z,99226.22
2023-04-18T11:50:06.727Z,99233.94
2023-04-18T11:55:17.541Z,99233.47
2023-04-18T12:00:37.535Z,99236.53
2023-04-18T12:05:40.000Z,99235.19
2023-04-18T12:10:50.668Z,99233.50
2023-04-18T12:15:54.042Z,99238.78
2023-04-18T12:20:56.016Z,99242.91
2023-04-18T12:26:05.834Z,99243.66
2023-04-18T12:31:07.924Z,99240.13
2023-04-18T12:36:10.510Z,99239.47
2023-04-18T12:41:12.664Z,99246.50
2023-04-18T12:46:14.500Z,99244.00
2023-04-18T12:51:16.298Z,99244.50
2023-04-18T12:56:18.173Z,99252.25
2023-04-18T13:01:20.163Z,99241.75
2023-04-18T13:06:21.946Z,99251.53
2023-04-18T13:11:28.747Z,99247.84
2023-04-18T13:16:31.318Z,99244.00
2023-04-18T13:21:33.204Z,99250.75
2023-04-18T13:26:36.144Z,99253.47
2023-04-18T13:31:38.150Z,99246.94
2023-04-18T13:36:42.992Z,99246.66
2023-04-18T13:41:45.505Z,99241.09
2023-04-18T13:46:47.284Z,99235.81
2023-04-18T13:51:53.644Z,99246.47
2023-04-18T13:57:02.269Z,99242.47
2023-04-18T14:02:04.399Z,99243.94
2023-04-18T14:07:06.415Z,99248.63
2023-04-18T14:12:08.305Z,99253.84
2023-04-18T14:17:10.340Z,99255.28
2023-04-18T14:22:12.146Z,99259.56
2023-04-18T14:27:13.987Z,99255.31
2023-04-18T14:32:15.745Z,99251.16
2023-04-18T14:37:17.818Z,99255.47
2023-04-18T14:42:19.600Z,99270.50
2023-04-18T14:47:21.850Z,99263.47
2023-04-18T14:52:23.962Z,99268.75
2023-04-18T14:57:26.631Z,99273.00
2023-04-18T15:02:28.696Z,99268.13
2023-04-18T15:07:30.734Z,99271.19
2023-04-18T15:12:32.928Z,99278.06
2023-04-18T15:17:34.943Z,99271.09
2023-04-18T15:22:37.224Z,99272.31
2023-04-18T15:27:39.113Z,99268.94
2023-04-18T15:32:42.180Z,99267.16
2023-04-18T15:37:44.039Z,99274.22
2023-04-18T15:42:46.473Z,99267.75
2023-04-18T15:47:49.035Z,99265.63
2023-04-18T15:52:50.846Z,99262.97
2023-04-18T15:57:52.545Z,99262.88
2023-04-18T16:02:55.086Z,99272.63
2023-04-18T16:07:58.184Z,99267.16
2023-04-18T16:13:03.254Z,99271.44
2023-04-18T16:18:05.190Z,99266.47
2023-04-18T16:23:07.232Z,99264.84
2023-04-18T16:28:09.083Z,99268.50
2023-04-18T16:33:11.736Z,99266.59
2023-04-18T16:38:13.512Z,99261.94
2023-04-18T16:43:15.212Z,99264.13
2023-04-18T16:48:17.137Z,99266.50
2023-04-18T16:53:18.918Z,99268.19
2023-04-18T16:58:21.683Z,99270.94
2023-04-18T17:03:23.640Z,99261.44
2023-04-18T17:08:27.115Z,99263.09
2023-04-18T17:13:31.562Z,99262.44
2023-04-18T17:18:33.534Z,99259.34
2023-04-18T17:23:35.357Z,99260.59
2023-04-18T17:28:37.369Z,99263.13
2023-04-18T17:33:39.152Z,99271.81
2023-04-18T17:38:41.290Z,99264.75
2023-04-18T17:43:44.265Z,99258.81
2023-04-18T17:48:46.115Z,99263.28
2023-04-18T17:53:47.939Z,99260.31
2023-04-18T17:58:49.666Z,99273.59
2023-04-18T18:03:53.707Z,99275.00
2023-04-18T18:08:56.012Z,99280.25
2023-04-18T18:13:57.799Z,99280.53
2023-04-18T18:18:59.667Z,99285.53
2023-04-18T18:24:01.506Z,99293.84
2023-04-18T18:29:10.083Z,99308.53
2023-04-18T18:34:12.359Z,99313.31
2023-04-18T18:39:22.170Z,99325.22
2023-04-18T18:44:27.417Z,99318.44
2023-04-18T18:49:32.206Z,99321.78
2023-04-18T18:54:34.022Z,99314.94
2023-04-18T18:59:36.060Z,99322.09
2023-04-18T19:04:37.973Z,99314.41
2023-04-18T19:09:39.900Z,99317.16
2023-04-18T19:14:42.453Z,99316.06
2023-04-18T19:19:44.483Z,99322.09
2023-04-18T19:24:46.483Z,99319.66
2023-04-18T19:29:48.532Z,99319.56
2023-04-18T19:34:51.414Z,99308.81
2023-04-18T19:39:53.391Z,99313.81
2023-04-18T19:44:56.466Z,99313.22
2023-04-18T19:50:02.064Z,99313.13
2023-04-18T19:55:04.093Z,99317.31
2023-04-18T20:00:12.643Z,99310.16
2023-04-18T20:05:16.302Z,99324.47
2023-04-18T20:10:23.374Z,99317.09
2023-04-18T20:15:25.161Z,99323.81
2023-04-18T20:20:28.302Z,99317.84
2023-04-18T20:25:30.121Z,99319.25
2023-04-18T20:30:32.165Z,99326.19
2023-04-18T20:35:34.950Z,99311.34
2023-04-18T20:40:39.799Z,99323.50
2023-04-18T20:45:43.024Z,99314.44
2023-04-18T20:50:51.197Z,99312.84
2023-04-18T20:55:53.207Z,99314.19
2023-04-18T21:00:54.984Z,99308.97
2023-04-18T21:05:56.779Z,99316.13
2023-04-18T21:10:58.542Z,99316.19
2023-04-18T21:16:02.502Z,99313.81
2023-04-18T21:21:04.682Z,99316.94
2023-04-18T21:26:06.827Z,99323.53
2023-04-18T21:31:08.722Z,99315.88
2023-04-18T21:36:12.834Z,99304.03
2023-04-18T21:41:22.895Z,99317.59
2023-04-18T21:46:25.579Z,99320.09
2023-04-18T21:51:27.460Z,99318.06
2023-04-18T21:56:29.314Z,99310.75
2023-04-18T22:01:31.371Z,99315.03
2023-04-18T22:06:33.399Z,99306.84
2023-04-18T22:11:35.178Z,99308.56
2023-04-18T22:16:38.167Z,99314.25
2023-04-18T22:21:39.942Z,99312.34
2023-04-18T22:26:41.707Z,99314.88
2023-04-18T22:31:43.457Z,99316.78
2023-04-18T22:36:45.643Z,99316.63
2023-04-18T22:41:47.375Z,99321.34
2023-04-18T22:46:49.574Z,99312.38
2023-04-18T22:51:54.468Z,99310.47
2023-04-18T22:56:56.796Z,99319.34
2023-04-18T23:01:58.620Z,99310.59
2023-04-18T23:07:00.433Z,99309.56
2023-04-18T23:12:05.225Z,99307.59
2023-04-18T23:17:07.015Z,99304.63
2023-04-18T23:22:08.762Z,99312.63
2023-04-18T23:27:10.598Z,99307.63
2023-04-18T23:32:12.306Z,99302.13
2023-04-18T23:37:14.058Z,99294.81
2023-04-18T23:42:15.837Z,99291.25
2023-04-18T23:47:17.679Z,99282.75
2023-04-18T23:52:19.476Z,99288.22
2023-04-18T23:57:21.292Z,99282.47
